FDW weather

Fairfield County Airport
Winnsboro, South Carolina, United States

Public forecast

Using degrees Fahrenheit for public forecast. Weather courtesy of forecast.io.

Current aviation weather report (METAR) for Fairfield County Airport

Retrieved 2019/10/18 14:35 UTC (15 minutes ago):

KFDW 181435Z AUTO 03006KT 10SM CLR 14/04 A3006 RMK AO1

Closest aviation forecast (TAF) to Fairfield County Airport

Closest forecast is Jim Hamilton L.B. Owens Airport, 21.5 nm (39.8 km) SSE. Retrieved 2019/10/18 12:24 UTC (2 hours ago):

TAF KCUB 181122Z 1812/1912 00000KT P6SM SKC FM181400 06005KT P6SM SCT250 FM182000 09005KT P6SM BKN250 FM191000 07005KT P6SM OVC100